Time;durP1;ratioP1;P1;durP2;ratioP2;P2;SDS_P1;SDS_P2;PMS_P1;PMS_P2;Temp;Humidity;BMP_temperature;BMP_pressure;BME280_temperature;BME280_humidity;BME280_pressure;Samples;Min_cycle;Max_cycle;Signal;HPM_P1;HPM_P2
2022/07/10 00:01:39;;;;;;;;;;;;;;;;;;4918664;29;19911;-85
2022/07/10 00:04:07;;;;;;;;;;;;;;;;;;4968794;23;19934;-84
2022/07/10 00:06:34;;;;;;;;;;;;;;;;;;4894280;29;20622;-81
2022/07/10 00:09:01;;;;;;;;;;;;;;;;;;4886086;29;20400;-80
2022/07/10 00:11:28;;;;;;;;;;;;;;;;;;4867011;29;20624;-80
2022/07/10 00:13:56;;;;;;;;;;;;;;;;;;4881178;29;19931;-80
2022/07/10 00:16:24;;;;;;;;;;;;;;;;;;4881897;29;20026;-80
2022/07/10 00:18:52;;;;;;;;;;;;;;;;;;4871907;29;20384;-79
2022/07/10 00:21:20;;;;;;;;;;;;;;;;;;4881439;29;20021;-80
2022/07/10 00:23:47;;;;;;;;;;;;;;;;;;4864417;29;19931;-79
2022/07/10 00:26:14;;;;;;;;;;;;;;;;;;4885107;29;19935;-80
2022/07/10 00:28:42;;;;;;;;;;;;;;;;;;4878989;29;19983;-79
2022/07/10 00:31:10;;;;;;;;;;;;;;;;;;4876685;29;19927;-80
2022/07/10 00:33:37;;;;;;;;;;;;;;;;;;4877760;29;20396;-80
2022/07/10 00:36:05;;;;;;;;;;;;;;;;;;4884524;29;20183;-80
2022/07/10 00:38:32;;;;;;;;;;;;;;;;;;4883145;29;19931;-80
2022/07/10 00:40:59;;;;;;;;;;;;;;;;;;4879219;29;19927;-81
2022/07/10 00:43:27;;;;;;;;;;;;;;;;;;4880550;29;20485;-81
2022/07/10 00:45:54;;;;;;;;;;;;;;;;;;4864241;29;19945;-80
2022/07/10 00:48:21;;;;;;;;;;;;;;;;;;4879406;29;19935;-80
2022/07/10 00:50:49;;;;;;;;;;;;;;;;;;4878282;29;19934;-79
2022/07/10 00:53:16;;;;;;;;;;;;;;;;;;4862573;29;19932;-80
2022/07/10 00:55:43;;;;;;;;;;;;;;;;;;4901495;29;19931;-81
2022/07/10 00:58:11;;;;;;;;;;;;;;;;;;4877897;29;19971;-81
2022/07/10 01:00:38;;;;;;;;;;;;;;;;;;4889993;29;20302;-80
2022/07/10 01:03:05;;;;;;;;;;;;;;;;;;4874217;29;19927;-80
2022/07/10 01:05:33;;;;;;;;;;;;;;;;;;4876162;29;19935;-81
2022/07/10 01:08:00;;;;;;;;;;;;;;;;;;4878455;29;20574;-80
2022/07/10 01:10:28;;;;;;;;;;;;;;;;;;4879424;29;20312;-81
2022/07/10 01:12:55;;;;;;;;;;;;;;;;;;4882135;29;19994;-81
2022/07/10 01:15:22;;;;;;;;;;;;;;;;;;4885948;29;20222;-81
2022/07/10 01:17:53;;;;;;;;;;;;;;;;;;4883112;29;20010;-80
2022/07/10 01:20:20;;;;;;;;;;;;;;;;;;4880135;29;20299;-79
2022/07/10 01:22:47;;;;;;;;;;;;;;;;;;4880443;29;20186;-80
2022/07/10 01:25:14;;;;;;;;;;;;;;;;;;4864476;29;19971;-82
2022/07/10 01:27:44;;;;;;;;;;;;;;;;;;4884494;29;20419;-80
2022/07/10 01:30:11;;;;;;;;;;;;;;;;;;4878017;29;20303;-80
2022/07/10 01:32:39;;;;;;;;;;;;;;;;;;4885849;29;19962;-80
2022/07/10 01:35:06;;;;;;;;;;;;;;;;;;4875878;29;20459;-80
2022/07/10 01:37:33;;;;;;;;;;;;;;;;;;4878949;29;20003;-81
2022/07/10 01:40:01;;;;;;;;;;;;;;;;;;4879668;29;20879;-81
2022/07/10 01:42:28;;;;;;;;;;;;;;;;;;4880844;29;20356;-81
2022/07/10 01:44:55;;;;;;;;;;;;;;;;;;4878615;29;20388;-80
2022/07/10 01:47:27;;;;;;;;;;;;;;;;;;4876369;29;20034;-81
2022/07/10 01:49:54;;;;;;;;;;;;;;;;;;4863426;29;19938;-80
2022/07/10 01:52:22;;;;;;;;;;;;;;;;;;4878241;29;19927;-80
2022/07/10 01:54:49;;;;;;;;;;;;;;;;;;4881229;29;19927;-80
2022/07/10 01:57:16;;;;;;;;;;;;;;;;;;4873502;29;20859;-80
2022/07/10 01:59:44;;;;;;;;;;;;;;;;;;4879348;29;19927;-80
2022/07/10 02:02:11;;;;;;;;;;;;;;;;;;4881587;29;19938;-80
2022/07/10 02:04:41;;;;;;;;;;;;;;;;;;4872189;29;19970;-79
2022/07/10 02:07:08;;;;;;;;;;;;;;;;;;4866037;29;19934;-80
2022/07/10 02:09:36;;;;;;;;;;;;;;;;;;4870909;29;19932;-80
2022/07/10 02:12:03;;;;;;;;;;;;;;;;;;4866633;29;19936;-79
2022/07/10 02:14:30;;;;;;;;;;;;;;;;;;4850544;29;19927;-80
2022/07/10 02:16:58;;;;;;;;;;;;;;;;;;4863423;29;19928;-81
2022/07/10 02:19:25;;;;;;;;;;;;;;;;;;4857683;29;19935;-80
2022/07/10 02:21:52;;;;;;;;;;;;;;;;;;4866692;29;19928;-80
2022/07/10 02:24:19;;;;;;;;;;;;;;;;;;4860062;29;19934;-80
2022/07/10 02:26:47;;;;;;;;;;;;;;;;;;4873117;29;20018;-79
2022/07/10 02:29:14;;;;;;;;;;;;;;;;;;4855303;29;19958;-80
2022/07/10 02:31:41;;;;;;;;;;;;;;;;;;4872485;29;19927;-80
2022/07/10 02:34:09;;;;;;;;;;;;;;;;;;4855863;29;19967;-80
2022/07/10 02:36:37;;;;;;;;;;;;;;;;;;4872434;29;19987;-79
2022/07/10 02:39:04;;;;;;;;;;;;;;;;;;4868874;29;19938;-79
2022/07/10 02:41:31;;;;;;;;;;;;;;;;;;4853706;29;19927;-80
2022/07/10 02:43:59;;;;;;;;;;;;;;;;;;4833983;29;19928;-80
2022/07/10 02:46:26;;;;;;;;;;;;;;;;;;4868680;29;19928;-79
2022/07/10 02:48:53;;;;;;;;;;;;;;;;;;4869582;29;19928;-80
2022/07/10 02:51:20;;;;;;;;;;;;;;;;;;4853086;29;19970;-80
2022/07/10 02:53:48;;;;;;;;;;;;;;;;;;4867339;29;19931;-80
2022/07/10 02:56:15;;;;;;;;;;;;;;;;;;4888955;29;20151;-81
2022/07/10 02:58:42;;;;;;;;;;;;;;;;;;4889536;29;19992;-81
2022/07/10 03:01:10;;;;;;;;;;;;;;;;;;4876939;29;19963;-81
2022/07/10 03:03:37;;;;;;;;;;;;;;;;;;4860088;29;19938;-80
2022/07/10 03:06:04;;;;;;;;;;;;;;;;;;4870464;29;19935;-80
2022/07/10 03:08:32;;;;;;;;;;;;;;;;;;4872588;29;19928;-80
2022/07/10 03:10:59;;;;;;;;;;;;;;;;;;4852184;29;19928;-80
2022/07/10 03:13:26;;;;;;;;;;;;;;;;;;4855927;29;19991;-80
2022/07/10 03:15:54;;;;;;;;;;;;;;;;;;4855425;29;19962;-80
2022/07/10 03:18:21;;;;;;;;;;;;;;;;;;4874334;29;19989;-79
2022/07/10 03:20:48;;;;;;;;;;;;;;;;;;4858828;29;20009;-80
2022/07/10 03:23:16;;;;;;;;;;;;;;;;;;4865453;29;20373;-81
2022/07/10 03:25:43;;;;;;;;;;;;;;;;;;4849629;29;20391;-80
2022/07/10 03:31:06;;;;;;;;;;;;;;;;;;4818961;29;19960;-79
2022/07/10 03:33:33;;;;;;;;;;;;;;;;;;4821172;29;20019;-78
2022/07/10 03:36:03;;;;;;;;;;;;;;;;;;4820741;29;19956;-79
2022/07/10 03:38:31;;;;;;;;;;;;;;;;;;4820291;29;19964;-78
2022/07/10 03:40:58;;;;;;;;;;;;;;;;;;4819000;29;19928;-79
2022/07/10 03:43:25;;;;;;;;;;;;;;;;;;4819518;29;19925;-78
2022/07/10 03:45:52;;;;;;;;;;;;;;;;;;4819319;29;19932;-79
2022/07/10 03:48:20;;;;;;;;;;;;;;;;;;4819387;29;19928;-79
2022/07/10 03:50:47;;;;;;;;;;;;;;;;;;4820194;29;20393;-80
2022/07/10 03:53:14;;;;;;;;;;;;;;;;;;4821781;29;19960;-80
2022/07/10 03:55:41;;;;;;;;;;;;;;;;;;4821375;29;19931;-80
2022/07/10 03:58:09;;;;;;;;;;;;;;;;;;4820372;29;20069;-80
2022/07/10 04:00:38;;;;;;;;;;;;;;;;;;4819826;29;20113;-80
2022/07/10 04:03:05;;;;;;;;;;;;;;;;;;4832800;29;19925;-80
2022/07/10 04:05:32;;;;;;;;;;;;;;;;;;4820237;29;19932;-80
2022/07/10 04:07:59;;;;;;;;;;;;;;;;;;4819784;29;19979;-80
2022/07/10 04:10:27;;;;;;;;;;;;;;;;;;4821286;29;20072;-80
2022/07/10 04:12:54;;;;;;;;;;;;;;;;;;4821319;29;20032;-80
2022/07/10 04:15:21;;;;;;;;;;;;;;;;;;4819994;29;19943;-80
2022/07/10 04:17:48;;;;;;;;;;;;;;;;;;4818662;29;20016;-80
2022/07/10 04:20:16;;;;;;;;;;;;;;;;;;4819124;29;19928;-80
2022/07/10 04:22:43;;;;;;;;;;;;;;;;;;4817996;29;19929;-80
2022/07/10 04:25:10;;;;;;;;;;;;;;;;;;4819958;29;19925;-80
2022/07/10 04:27:37;;;;;;;;;;;;;;;;;;4819226;29;19933;-80
2022/07/10 04:30:04;;;;;;;;;;;;;;;;;;4842029;29;19924;-80
2022/07/10 04:32:32;;;;;;;;;;;;;;;;;;4855523;29;19928;-80
2022/07/10 04:35:00;;;;;;;;;;;;;;;;;;4853331;29;20384;-79
2022/07/10 04:37:29;;;;;;;;;;;;;;;;;;4854582;29;19939;-80
2022/07/10 04:39:56;;;;;;;;;;;;;;;;;;4856182;29;19928;-80
2022/07/10 04:42:25;;;;;;;;;;;;;;;;;;4852490;29;20000;-80
2022/07/10 04:44:53;;;;;;;;;;;;;;;;;;4855214;29;19952;-80
2022/07/10 04:47:20;;;;;;;;;;;;;;;;;;4852058;29;20530;-80
2022/07/10 04:49:47;;;;;;;;;;;;;;;;;;4853118;29;19924;-80
2022/07/10 04:52:15;;;;;;;;;;;;;;;;;;4855574;29;20300;-80
2022/07/10 04:54:42;;;;;;;;;;;;;;;;;;4855832;29;19967;-80
2022/07/10 04:57:09;;;;;;;;;;;;;;;;;;4853434;29;19930;-80
2022/07/10 04:59:40;;;;;;;;;;;;;;;;;;4854250;29;19924;-80
2022/07/10 05:02:08;;;;;;;;;;;;;;;;;;4856517;29;19959;-80
2022/07/10 05:04:35;;;;;;;;;;;;;;;;;;4847191;29;19935;-80
2022/07/10 05:07:02;;;;;;;;;;;;;;;;;;4854010;29;19924;-79
2022/07/10 05:09:29;;;;;;;;;;;;;;;;;;4838211;29;19924;-80
2022/07/10 05:11:57;;;;;;;;;;;;;;;;;;4855411;29;20042;-79
2022/07/10 05:14:25;;;;;;;;;;;;;;;;;;4855976;29;19928;-80
2022/07/10 05:16:53;;;;;;;;;;;;;;;;;;4840597;29;20015;-80
2022/07/10 05:19:20;;;;;;;;;;;;;;;;;;4855801;29;20372;-80
2022/07/10 05:21:47;;;;;;;;;;;;;;;;;;4854754;29;20400;-80
2022/07/10 05:24:14;;;;;;;;;;;;;;;;;;4856094;29;19924;-80
2022/07/10 05:26:42;;;;;;;;;;;;;;;;;;4854920;29;19971;-80
2022/07/10 05:29:09;;;;;;;;;;;;;;;;;;4855250;29;20398;-80
2022/07/10 05:31:36;;;;;;;;;;;;;;;;;;4855298;29;19924;-80
2022/07/10 05:34:04;;;;;;;;;;;;;;;;;;4848748;29;19985;-80
2022/07/10 05:36:31;;;;;;;;;;;;;;;;;;4853457;29;19968;-80
2022/07/10 05:38:58;;;;;;;;;;;;;;;;;;4839176;29;19938;-80
2022/07/10 05:41:25;;;;;;;;;;;;;;;;;;4855473;29;19924;-80
2022/07/10 05:43:53;;;;;;;;;;;;;;;;;;4850202;29;19927;-80
2022/07/10 05:46:20;;;;;;;;;;;;;;;;;;4837026;29;20635;-81
2022/07/10 05:48:47;;;;;;;;;;;;;;;;;;4838375;29;19931;-81
2022/07/10 05:51:14;;;;;;;;;;;;;;;;;;4856948;29;19928;-81
2022/07/10 05:53:57;;;;;;;;;;;;;;;;;;4842801;29;20396;-81
2022/07/10 05:56:24;;;;;;;;;;;;;;;;;;4849668;29;19931;-81
2022/07/10 05:58:55;;;;;;;;;;;;;;;;;;4840387;29;19924;-81
2022/07/10 06:01:22;;;;;;;;;;;;;;;;;;4856495;29;19928;-81
2022/07/10 06:03:49;;;;;;;;;;;;;;;;;;4854671;29;19934;-81
2022/07/10 06:06:17;;;;;;;;;;;;;;;;;;4856441;29;20527;-81
2022/07/10 06:08:44;;;;;;;;;;;;;;;;;;4855977;29;19924;-81
2022/07/10 06:11:11;;;;;;;;;;;;;;;;;;4852133;29;19927;-81
2022/07/10 06:13:39;;;;;;;;;;;;;;;;;;4855094;29;19976;-81
2022/07/10 06:16:06;;;;;;;;;;;;;;;;;;4853710;29;20027;-81
2022/07/10 06:18:33;;;;;;;;;;;;;;;;;;4837672;29;19950;-81
2022/07/10 06:21:01;;;;;;;;;;;;;;;;;;4838361;29;20297;-81
2022/07/10 06:23:29;;;;;;;;;;;;;;;;;;4846450;29;19928;-81
2022/07/10 06:25:57;;;;;;;;;;;;;;;;;;4848734;29;19928;-81
2022/07/10 06:28:24;;;;;;;;;;;;;;;;;;4836227;29;19928;-81
2022/07/10 06:30:51;;;;;;;;;;;;;;;;;;4838333;29;19960;-81
2022/07/10 06:33:24;;;;;;;;;;;;;;;;;;4840834;29;19932;-81
2022/07/10 06:35:51;;;;;;;;;;;;;;;;;;4874150;29;19930;-81
2022/07/10 06:38:18;;;;;;;;;;;;;;;;;;4839879;29;20465;-81
2022/07/10 06:40:46;;;;;;;;;;;;;;;;;;4854950;29;19931;-81
2022/07/10 06:43:13;;;;;;;;;;;;;;;;;;4862746;29;20418;-81
2022/07/10 06:45:41;;;;;;;;;;;;;;;;;;4867577;29;19931;-80
2022/07/10 06:48:08;;;;;;;;;;;;;;;;;;4903767;23;20354;-76
2022/07/10 06:50:36;;;;;;;;;;;;;;;;;;4889944;29;19932;-77
2022/07/10 06:53:03;;;;;;;;;;;;;;;;;;4893028;29;20397;-77
2022/07/10 06:55:30;;;;;;;;;;;;;;;;;;4897229;29;19924;-76
2022/07/10 06:57:57;;;;;;;;;;;;;;;;;;4893516;29;20018;-76
2022/07/10 07:00:25;;;;;;;;;;;;;;;;;;4891074;29;19930;-77
2022/07/10 07:02:52;;;;;;;;;;;;;;;;;;4891660;29;19934;-76
2022/07/10 07:05:19;;;;;;;;;;;;;;;;;;4894074;29;19931;-77
2022/07/10 07:07:46;;;;;;;;;;;;;;;;;;4891910;29;19927;-77
2022/07/10 07:10:14;;;;;;;;;;;;;;;;;;4894845;29;19938;-77
2022/07/10 07:12:41;;;;;;;;;;;;;;;;;;4894622;29;20396;-78
2022/07/10 07:15:08;;;;;;;;;;;;;;;;;;4897700;29;19927;-79
2022/07/10 07:17:46;;;;;;;;;;;;;;;;;;4898683;29;19924;-79
2022/07/10 07:23:11;;;;;;;;;;;;;;;;;;4897278;29;19963;-78
2022/07/10 07:25:41;;;;;;;;;;;;;;;;;;4905959;29;20018;-78
2022/07/10 07:28:09;;;;;;;;;;;;;;;;;;4898838;29;20026;-78
2022/07/10 07:30:36;;;;;;;;;;;;;;;;;;4899273;29;19931;-78
2022/07/10 07:33:03;;;;;;;;;;;;;;;;;;4901076;29;19975;-76
2022/07/10 07:35:31;;;;;;;;;;;;;;;;;;4907493;29;19934;-79
2022/07/10 07:37:58;;;;;;;;;;;;;;;;;;4897262;29;19924;-78
2022/07/10 07:40:25;;;;;;;;;;;;;;;;;;4901760;29;19927;-78
2022/07/10 07:42:55;;;;;;;;;;;;;;;;;;4900411;29;19943;-79
2022/07/10 07:45:23;;;;;;;;;;;;;;;;;;4902137;29;19946;-78
2022/07/10 07:47:50;;;;;;;;;;;;;;;;;;4903715;29;19938;-78
2022/07/10 07:50:17;;;;;;;;;;;;;;;;;;4920711;29;20029;-79
2022/07/10 07:52:44;;;;;;;;;;;;;;;;;;4905874;29;19935;-79
2022/07/10 07:55:12;;;;;;;;;;;;;;;;;;4928521;29;19979;-78
2022/07/10 07:57:39;;;;;;;;;;;;;;;;;;4909048;29;19945;-80
2022/07/10 08:00:07;;;;;;;;;;;;;;;;;;4908464;29;19927;-79
2022/07/10 08:02:40;;;;;;;;;;;;;;;;;;4900817;29;19927;-78
2022/07/10 08:05:09;;;;;;;;;;;;;;;;;;4905986;29;19962;-79
2022/07/10 08:07:36;;;;;;;;;;;;;;;;;;4909558;29;20353;-80
2022/07/10 08:10:03;;;;;;;;;;;;;;;;;;4907647;29;20030;-78
2022/07/10 08:12:30;;;;;;;;;;;;;;;;;;4912219;29;19923;-79
2022/07/10 08:14:58;;;;;;;;;;;;;;;;;;4912709;29;19923;-79
2022/07/10 08:17:25;;;;;;;;;;;;;;;;;;4917571;29;19931;-79
2022/07/10 08:19:52;;;;;;;;;;;;;;;;;;4907922;29;20148;-79
2022/07/10 08:22:19;;;;;;;;;;;;;;;;;;4899164;29;19930;-79
2022/07/10 08:24:47;;;;;;;;;;;;;;;;;;4915421;29;19927;-80
2022/07/10 08:27:15;;;;;;;;;;;;;;;;;;4901346;29;19935;-79
2022/07/10 08:29:43;;;;;;;;;;;;;;;;;;4895480;29;20018;-79
2022/07/10 08:32:10;;;;;;;;;;;;;;;;;;4897101;29;20417;-80
2022/07/10 08:34:37;;;;;;;;;;;;;;;;;;4898642;29;20401;-79
2022/07/10 08:37:05;;;;;;;;;;;;;;;;;;4896306;29;19925;-77
2022/07/10 08:39:32;;;;;;;;;;;;;;;;;;4899782;29;19955;-78
2022/07/10 08:41:59;;;;;;;;;;;;;;;;;;4897726;29;19927;-78
2022/07/10 08:44:26;;;;;;;;;;;;;;;;;;4900194;29;19923;-78
2022/07/10 08:46:54;;;;;;;;;;;;;;;;;;4897086;29;19933;-78
2022/07/10 08:49:21;;;;;;;;;;;;;;;;;;4895838;29;19933;-79
2022/07/10 08:51:48;;;;;;;;;;;;;;;;;;4898149;29;19931;-78
2022/07/10 08:54:15;;;;;;;;;;;;;;;;;;4896488;29;19927;-79
2022/07/10 08:56:48;;;;;;;;;;;;;;;;;;4897075;29;20559;-78
2022/07/10 08:59:15;;;;;;;;;;;;;;;;;;4899185;29;19929;-79
2022/07/10 09:01:43;;;;;;;;;;;;;;;;;;4897658;29;20658;-78
2022/07/10 09:04:10;;;;;;;;;;;;;;;;;;4893371;29;19928;-78
2022/07/10 09:06:37;;;;;;;;;;;;;;;;;;4897258;29;19924;-78
2022/07/10 09:09:04;;;;;;;;;;;;;;;;;;4898228;29;19934;-78
2022/07/10 09:11:32;;;;;;;;;;;;;;;;;;4895711;29;20317;-77
2022/07/10 09:13:59;;;;;;;;;;;;;;;;;;4895412;29;19928;-78
2022/07/10 09:16:26;;;;;;;;;;;;;;;;;;4894662;29;19927;-77
2022/07/10 09:18:53;;;;;;;;;;;;;;;;;;4894651;29;20347;-78
2022/07/10 09:21:21;;;;;;;;;;;;;;;;;;4892957;29;20018;-79
2022/07/10 09:23:52;;;;;;;;;;;;;;;;;;4905660;29;20366;-77
2022/07/10 09:26:20;;;;;;;;;;;;;;;;;;4893158;29;19927;-78
2022/07/10 09:28:47;;;;;;;;;;;;;;;;;;4921850;23;19933;-80
2022/07/10 09:31:14;;;;;;;;;;;;;;;;;;4893269;29;19931;-81
2022/07/10 09:33:42;;;;;;;;;;;;;;;;;;4894471;29;19967;-80
2022/07/10 09:36:12;;;;;;;;;;;;;;;;;;4889303;29;19923;-81
2022/07/10 09:38:42;;;;;;;;;;;;;;;;;;4839984;29;19927;-81
2022/07/10 09:41:09;;;;;;;;;;;;;;;;;;4884685;29;19928;-81
2022/07/10 09:43:37;;;;;;;;;;;;;;;;;;4882292;29;19999;-81
2022/07/10 09:46:04;;;;;;;;;;;;;;;;;;4878060;29;20778;-81
2022/07/10 09:48:31;;;;;;;;;;;;;;;;;;4885068;29;19923;-81
2022/07/10 09:50:59;;;;;;;;;;;;;;;;;;4857686;29;19932;-80
2022/07/10 09:53:26;;;;;;;;;;;;;;;;;;4857318;29;19934;-81
2022/07/10 09:55:54;;;;;;;;;;;;;;;;;;4855565;29;19924;-81
2022/07/10 09:58:21;;;;;;;;;;;;;;;;;;4856011;29;20314;-81
2022/07/10 10:00:48;;;;;;;;;;;;;;;;;;4857942;29;19928;-81
2022/07/10 10:03:16;;;;;;;;;;;;;;;;;;4855949;29;19983;-81
2022/07/10 10:05:43;;;;;;;;;;;;;;;;;;4871206;29;19931;-81
2022/07/10 10:08:11;;;;;;;;;;;;;;;;;;4878600;29;19987;-81
2022/07/10 10:10:39;;;;;;;;;;;;;;;;;;4882280;29;20307;-81
2022/07/10 10:13:06;;;;;;;;;;;;;;;;;;4884692;29;19924;-81
2022/07/10 10:15:33;;;;;;;;;;;;;;;;;;4885708;29;19935;-81
2022/07/10 10:18:01;;;;;;;;;;;;;;;;;;4886043;29;20014;-81
2022/07/10 10:20:38;;;;;;;;;;;;;;;;;;4878559;29;19927;-81
2022/07/10 10:23:05;;;;;;;;;;;;;;;;;;4882360;29;20485;-81
2022/07/10 10:25:32;;;;;;;;;;;;;;;;;;4880913;29;19931;-82
2022/07/10 10:28:00;;;;;;;;;;;;;;;;;;4881107;29;19935;-81
2022/07/10 10:30:28;;;;;;;;;;;;;;;;;;4882106;29;19927;-82
2022/07/10 10:32:55;;;;;;;;;;;;;;;;;;4878945;29;19923;-82
2022/07/10 10:35:22;;;;;;;;;;;;;;;;;;4889732;29;19927;-82
2022/07/10 10:37:50;;;;;;;;;;;;;;;;;;4869962;29;19987;-83
2022/07/10 10:40:17;;;;;;;;;;;;;;;;;;4858392;29;19924;-82
2022/07/10 10:42:44;;;;;;;;;;;;;;;;;;4863295;29;19932;-82
2022/07/10 10:45:12;;;;;;;;;;;;;;;;;;4883598;29;20607;-81
2022/07/10 10:47:39;;;;;;;;;;;;;;;;;;4885367;29;20280;-82
2022/07/10 10:50:08;;;;;;;;;;;;;;;;;;4879151;29;19966;-82
2022/07/10 10:52:35;;;;;;;;;;;;;;;;;;4878199;29;20026;-81
2022/07/10 10:55:04;;;;;;;;;;;;;;;;;;4883548;29;19928;-82
2022/07/10 10:57:31;;;;;;;;;;;;;;;;;;4892984;29;20302;-81
2022/07/10 10:59:59;;;;;;;;;;;;;;;;;;4879349;29;19967;-81
2022/07/10 11:02:27;;;;;;;;;;;;;;;;;;4862004;29;19931;-81
2022/07/10 11:04:54;;;;;;;;;;;;;;;;;;4876955;29;19955;-82
2022/07/10 11:07:22;;;;;;;;;;;;;;;;;;4895867;29;19931;-82
2022/07/10 11:09:49;;;;;;;;;;;;;;;;;;4877305;29;20304;-82
2022/07/10 11:12:17;;;;;;;;;;;;;;;;;;4860759;29;19924;-81
2022/07/10 11:14:45;;;;;;;;;;;;;;;;;;4859805;29;20030;-82
2022/07/10 11:17:12;;;;;;;;;;;;;;;;;;4889096;29;19927;-82
2022/07/10 11:19:40;;;;;;;;;;;;;;;;;;4872785;29;19955;-81
2022/07/10 11:22:08;;;;;;;;;;;;;;;;;;4871817;29;19935;-81
2022/07/10 11:24:36;;;;;;;;;;;;;;;;;;4877734;29;19931;-80
2022/07/10 11:27:03;;;;;;;;;;;;;;;;;;4875826;29;19958;-81
2022/07/10 11:29:31;;;;;;;;;;;;;;;;;;4877504;29;20022;-81
2022/07/10 11:31:58;;;;;;;;;;;;;;;;;;4873969;29;19934;-81
2022/07/10 11:34:25;;;;;;;;;;;;;;;;;;4872032;29;19938;-81
2022/07/10 11:36:53;;;;;;;;;;;;;;;;;;4871100;29;19932;-80
2022/07/10 11:39:20;;;;;;;;;;;;;;;;;;4872419;29;20451;-80
2022/07/10 11:41:47;;;;;;;;;;;;;;;;;;4873207;29;20378;-83
2022/07/10 11:44:16;;;;;;;;;;;;;;;;;;4878036;29;20070;-80
2022/07/10 11:46:44;;;;;;;;;;;;;;;;;;4877037;29;19928;-81
2022/07/10 11:49:14;;;;;;;;;;;;;;;;;;4878035;29;19924;-81
2022/07/10 11:51:42;;;;;;;;;;;;;;;;;;4873371;29;20503;-82
2022/07/10 11:54:12;;;;;;;;;;;;;;;;;;4875497;29;20285;-81
2022/07/10 11:56:41;;;;;;;;;;;;;;;;;;4886783;29;19985;-81
2022/07/10 11:59:08;;;;;;;;;;;;;;;;;;4871776;29;20014;-81
2022/07/10 12:01:36;;;;;;;;;;;;;;;;;;4868279;29;19951;-81
2022/07/10 12:04:03;;;;;;;;;;;;;;;;;;4888012;29;19931;-80
2022/07/10 12:06:31;;;;;;;;;;;;;;;;;;4856100;29;20056;-80
2022/07/10 12:08:58;;;;;;;;;;;;;;;;;;4873177;29;19931;-82
2022/07/10 12:11:26;;;;;;;;;;;;;;;;;;4877885;29;19935;-81
2022/07/10 12:13:54;;;;;;;;;;;;;;;;;;4877848;29;19930;-82
2022/07/10 12:16:24;;;;;;;;;;;;;;;;;;4875817;29;19924;-80
2022/07/10 12:18:58;;;;;;;;;;;;;;;;;;4868681;29;19928;-81
2022/07/10 12:21:26;;;;;;;;;;;;;;;;;;4870045;29;19938;-80
2022/07/10 12:23:53;;;;;;;;;;;;;;;;;;4872712;29;19931;-80
2022/07/10 12:26:20;;;;;;;;;;;;;;;;;;4871763;29;19927;-79
2022/07/10 12:28:48;;;;;;;;;;;;;;;;;;4872217;29;19935;-80
2022/07/10 12:31:15;;;;;;;;;;;;;;;;;;4874809;29;20018;-80
2022/07/10 12:33:43;;;;;;;;;;;;;;;;;;4876357;29;19932;-80
2022/07/10 12:36:11;;;;;;;;;;;;;;;;;;4874457;29;19977;-81
2022/07/10 12:38:38;;;;;;;;;;;;;;;;;;4875627;29;19930;-81
2022/07/10 12:41:06;;;;;;;;;;;;;;;;;;4876135;29;19975;-79
2022/07/10 12:43:33;;;;;;;;;;;;;;;;;;4875933;29;19927;-81
2022/07/10 12:46:02;;;;;;;;;;;;;;;;;;4877889;29;19932;-81
2022/07/10 12:48:29;;;;;;;;;;;;;;;;;;4899330;23;20588;-79
2022/07/10 12:50:57;;;;;;;;;;;;;;;;;;4895350;29;19927;-79
2022/07/10 12:53:24;;;;;;;;;;;;;;;;;;4902179;29;19958;-79
2022/07/10 12:55:51;;;;;;;;;;;;;;;;;;4911819;29;19912;-77
2022/07/10 12:58:19;;;;;;;;;;;;;;;;;;4894157;29;19918;-80
2022/07/10 13:00:49;;;;;;;;;;;;;;;;;;4894427;29;19920;-79
2022/07/10 13:03:17;;;;;;;;;;;;;;;;;;4890943;29;19912;-80
2022/07/10 13:05:44;;;;;;;;;;;;;;;;;;4891732;29;19970;-80
2022/07/10 13:08:16;;;;;;;;;;;;;;;;;;4871617;29;19935;-80
2022/07/10 13:10:43;;;;;;;;;;;;;;;;;;4876712;29;20238;-79
2022/07/10 13:13:11;;;;;;;;;;;;;;;;;;4861930;29;19932;-80
2022/07/10 13:15:45;;;;;;;;;;;;;;;;;;4893757;29;19911;-79
2022/07/10 13:18:13;;;;;;;;;;;;;;;;;;4880470;29;19912;-80
2022/07/10 13:20:40;;;;;;;;;;;;;;;;;;4898489;29;19912;-79
2022/07/10 13:23:08;;;;;;;;;;;;;;;;;;4893602;29;19934;-79
2022/07/10 13:25:35;;;;;;;;;;;;;;;;;;4881886;29;19928;-81
2022/07/10 13:28:03;;;;;;;;;;;;;;;;;;4893549;29;20348;-80
2022/07/10 13:30:30;;;;;;;;;;;;;;;;;;4875529;29;19924;-81
2022/07/10 13:32:57;;;;;;;;;;;;;;;;;;4868136;29;19932;-80
2022/07/10 13:35:25;;;;;;;;;;;;;;;;;;4862202;29;20054;-79
2022/07/10 13:37:52;;;;;;;;;;;;;;;;;;4867557;29;19924;-80
2022/07/10 13:40:20;;;;;;;;;;;;;;;;;;4861392;29;19927;-79
2022/07/10 13:42:47;;;;;;;;;;;;;;;;;;4869586;29;20328;-81
2022/07/10 13:45:14;;;;;;;;;;;;;;;;;;4853068;29;19979;-80
2022/07/10 13:47:42;;;;;;;;;;;;;;;;;;4852441;29;19935;-81
2022/07/10 13:50:09;;;;;;;;;;;;;;;;;;4859857;29;20323;-81
2022/07/10 13:52:36;;;;;;;;;;;;;;;;;;4859073;29;19928;-81
2022/07/10 13:55:05;;;;;;;;;;;;;;;;;;4853968;29;20400;-80
2022/07/10 13:57:32;;;;;;;;;;;;;;;;;;4848278;29;19935;-81
2022/07/10 14:00:02;;;;;;;;;;;;;;;;;;4854829;29;19929;-81
2022/07/10 14:02:37;;;;;;;;;;;;;;;;;;4855881;29;19932;-80
2022/07/10 14:05:05;;;;;;;;;;;;;;;;;;4858114;29;19936;-81
2022/07/10 14:07:32;;;;;;;;;;;;;;;;;;4857955;29;20047;-81
2022/07/10 14:10:01;;;;;;;;;;;;;;;;;;4860511;29;20538;-81
2022/07/10 14:12:30;;;;;;;;;;;;;;;;;;4861058;29;19931;-81
2022/07/10 14:14:57;;;;;;;;;;;;;;;;;;4859475;29;19974;-80
2022/07/10 14:17:24;;;;;;;;;;;;;;;;;;4855255;29;19936;-81
2022/07/10 14:19:52;;;;;;;;;;;;;;;;;;4864045;29;19934;-81
2022/07/10 14:22:21;;;;;;;;;;;;;;;;;;4865975;29;20712;-80
2022/07/10 14:24:50;;;;;;;;;;;;;;;;;;4862182;29;19941;-81
2022/07/10 14:27:17;;;;;;;;;;;;;;;;;;4863753;29;20030;-80
2022/07/10 14:29:45;;;;;;;;;;;;;;;;;;4862159;29;19943;-80
2022/07/10 14:32:12;;;;;;;;;;;;;;;;;;4877475;29;20019;-80
2022/07/10 14:34:39;;;;;;;;;;;;;;;;;;4866042;29;20288;-81
2022/07/10 14:37:06;;;;;;;;;;;;;;;;;;4863178;29;19935;-80
2022/07/10 14:39:34;;;;;;;;;;;;;;;;;;4867602;29;19927;-79
2022/07/10 14:42:01;;;;;;;;;;;;;;;;;;4869039;29;19974;-79
2022/07/10 14:47:22;;;;;;;;;;;;;;;;;;4861151;29;19928;-80
2022/07/10 14:49:49;;;;;;;;;;;;;;;;;;4862796;29;20179;-79
2022/07/10 14:52:20;;;;;;;;;;;;;;;;;;4862904;29;20031;-80
2022/07/10 14:54:50;;;;;;;;;;;;;;;;;;4864201;29;19932;-80
2022/07/10 14:57:18;;;;;;;;;;;;;;;;;;4860857;29;19928;-81
2022/07/10 14:59:45;;;;;;;;;;;;;;;;;;4883935;29;19959;-81
2022/07/10 15:02:12;;;;;;;;;;;;;;;;;;4870573;29;20443;-81
2022/07/10 15:04:40;;;;;;;;;;;;;;;;;;4866268;29;19928;-80
2022/07/10 15:07:07;;;;;;;;;;;;;;;;;;4867435;29;19927;-80
2022/07/10 15:09:35;;;;;;;;;;;;;;;;;;4867323;29;20426;-80
2022/07/10 15:12:02;;;;;;;;;;;;;;;;;;4868964;29;19932;-80
2022/07/10 15:14:29;;;;;;;;;;;;;;;;;;4866041;29;20035;-80
2022/07/10 15:16:57;;;;;;;;;;;;;;;;;;4866465;29;19967;-80
2022/07/10 15:19:24;;;;;;;;;;;;;;;;;;4869013;29;19938;-80
2022/07/10 15:21:51;;;;;;;;;;;;;;;;;;4869844;29;19930;-81
2022/07/10 15:24:19;;;;;;;;;;;;;;;;;;4869637;29;19932;-79
2022/07/10 15:26:46;;;;;;;;;;;;;;;;;;4866461;29;19928;-79
2022/07/10 15:29:14;;;;;;;;;;;;;;;;;;4870208;29;20285;-80
2022/07/10 15:31:41;;;;;;;;;;;;;;;;;;4869733;29;20018;-79
2022/07/10 15:34:08;;;;;;;;;;;;;;;;;;4867301;29;19928;-79
2022/07/10 15:36:36;;;;;;;;;;;;;;;;;;4858600;29;20280;-79
2022/07/10 15:39:03;;;;;;;;;;;;;;;;;;4863471;29;21726;-79
2022/07/10 15:41:30;;;;;;;;;;;;;;;;;;4878379;29;19939;-80
2022/07/10 15:43:58;;;;;;;;;;;;;;;;;;4865913;29;20039;-80
2022/07/10 15:46:25;;;;;;;;;;;;;;;;;;4864361;29;19931;-79
2022/07/10 15:48:53;;;;;;;;;;;;;;;;;;4858574;29;20560;-79
2022/07/10 15:51:20;;;;;;;;;;;;;;;;;;4865395;29;20042;-79
2022/07/10 15:53:47;;;;;;;;;;;;;;;;;;4865897;29;19927;-79
2022/07/10 15:56:15;;;;;;;;;;;;;;;;;;4864209;29;19928;-79
2022/07/10 15:58:44;;;;;;;;;;;;;;;;;;4863186;29;19927;-79
2022/07/10 16:01:13;;;;;;;;;;;;;;;;;;4864878;29;20008;-79
2022/07/10 16:03:40;;;;;;;;;;;;;;;;;;4869097;29;20431;-80
2022/07/10 16:06:10;;;;;;;;;;;;;;;;;;4869165;29;19927;-79
2022/07/10 16:08:37;;;;;;;;;;;;;;;;;;4862229;29;20023;-79
2022/07/10 16:11:06;;;;;;;;;;;;;;;;;;4878827;29;20528;-79
2022/07/10 16:13:33;;;;;;;;;;;;;;;;;;4862879;29;19964;-79
2022/07/10 16:16:01;;;;;;;;;;;;;;;;;;4867670;29;19928;-80
2022/07/10 16:18:28;;;;;;;;;;;;;;;;;;4867541;29;19927;-79
2022/07/10 16:20:55;;;;;;;;;;;;;;;;;;4866529;29;20125;-80
2022/07/10 16:23:23;;;;;;;;;;;;;;;;;;4857522;29;19994;-79
2022/07/10 16:26:04;;;;;;;;;;;;;;;;;;4862272;29;19939;-80
2022/07/10 16:28:32;;;;;;;;;;;;;;;;;;4858349;29;20448;-80
2022/07/10 16:30:59;;;;;;;;;;;;;;;;;;4883553;29;19962;-79
2022/07/10 16:33:27;;;;;;;;;;;;;;;;;;4864717;29;19931;-79
2022/07/10 16:35:55;;;;;;;;;;;;;;;;;;4861631;29;19928;-79
2022/07/10 16:38:22;;;;;;;;;;;;;;;;;;4859259;29;19928;-79
2022/07/10 16:40:49;;;;;;;;;;;;;;;;;;4868213;29;19935;-79
2022/07/10 16:43:17;;;;;;;;;;;;;;;;;;4868358;29;19931;-80
2022/07/10 16:45:44;;;;;;;;;;;;;;;;;;4860264;29;19934;-79
2022/07/10 16:48:12;;;;;;;;;;;;;;;;;;4861626;29;19927;-79
2022/07/10 16:50:39;;;;;;;;;;;;;;;;;;4865744;29;19931;-79
2022/07/10 16:53:07;;;;;;;;;;;;;;;;;;4865116;29;20504;-79
2022/07/10 16:55:34;;;;;;;;;;;;;;;;;;4867184;29;20471;-78
2022/07/10 16:58:01;;;;;;;;;;;;;;;;;;4867946;29;19928;-80